sensor_id;sensor_type;location;lat;lon;timestamp;temperature;humidity
41318;DHT22;27067;51.554;7.026;2022-10-04T00:00:40;20.00;91.80
41318;DHT22;27067;51.554;7.026;2022-10-04T00:03:16;19.90;91.90
41318;DHT22;27067;51.554;7.026;2022-10-04T00:05:51;20.00;91.60
41318;DHT22;27067;51.554;7.026;2022-10-04T00:11:19;20.50;91.90
41318;DHT22;27067;51.554;7.026;2022-10-04T00:14:14;20.00;92.00
41318;DHT22;27067;51.554;7.026;2022-10-04T00:16:39;20.20;92.00
41318;DHT22;27067;51.554;7.026;2022-10-04T00:27:29;20.00;91.80
41318;DHT22;27067;51.554;7.026;2022-10-04T00:32:58;20.00;91.90
41318;DHT22;27067;51.554;7.026;2022-10-04T00:37:59;19.90;92.10
41318;DHT22;27067;51.554;7.026;2022-10-04T00:43:26;19.90;92.00
41318;DHT22;27067;51.554;7.026;2022-10-04T00:45:58;20.00;91.60
41318;DHT22;27067;51.554;7.026;2022-10-04T00:51:04;22.60;92.40
41318;DHT22;27067;51.554;7.026;2022-10-04T00:53:41;20.00;91.70
41318;DHT22;27067;51.554;7.026;2022-10-04T00:56:22;20.00;91.50
41318;DHT22;27067;51.554;7.026;2022-10-04T01:01:24;20.00;91.60
41318;DHT22;27067;51.554;7.026;2022-10-04T01:03:53;20.00;91.60
41318;DHT22;27067;51.554;7.026;2022-10-04T01:06:21;20.00;91.40
41318;DHT22;27067;51.554;7.026;2022-10-04T01:08:53;19.90;91.20
41318;DHT22;27067;51.554;7.026;2022-10-04T01:11:44;19.90;91.20
41318;DHT22;27067;51.554;7.026;2022-10-04T01:15:22;18.80;91.40
41318;DHT22;27067;51.554;7.026;2022-10-04T01:17:13;19.90;91.40
41318;DHT22;27067;51.554;7.026;2022-10-04T01:19:49;19.90;91.70
41318;DHT22;27067;51.554;7.026;2022-10-04T01:22:41;19.90;91.50
41318;DHT22;27067;51.554;7.026;2022-10-04T01:25:07;19.90;91.40
41318;DHT22;27067;51.554;7.026;2022-10-04T01:30:12;19.90;91.30
41318;DHT22;27067;51.554;7.026;2022-10-04T01:32:39;19.90;91.50
41318;DHT22;27067;51.554;7.026;2022-10-04T01:35:11;19.80;91.20
41318;DHT22;27067;51.554;7.026;2022-10-04T01:37:38;19.90;91.60
41318;DHT22;27067;51.554;7.026;2022-10-04T01:40:05;19.90;91.20
41318;DHT22;27067;51.554;7.026;2022-10-04T01:42:37;19.80;91.60
41318;DHT22;27067;51.554;7.026;2022-10-04T01:53:30;19.90;91.40
41318;DHT22;27067;51.554;7.026;2022-10-04T01:56:17;19.80;91.40
41318;DHT22;27067;51.554;7.026;2022-10-04T01:58:49;19.80;91.60
41318;DHT22;27067;51.554;7.026;2022-10-04T02:01:29;19.80;91.50
41318;DHT22;27067;51.554;7.026;2022-10-04T02:04:01;19.80;91.30
41318;DHT22;27067;51.554;7.026;2022-10-04T02:06:34;19.80;91.30
41318;DHT22;27067;51.554;7.026;2022-10-04T02:09:07;19.80;91.50
41318;DHT22;27067;51.554;7.026;2022-10-04T02:11:34;19.80;91.40
41318;DHT22;27067;51.554;7.026;2022-10-04T02:14:03;19.80;91.10
41318;DHT22;27067;51.554;7.026;2022-10-04T02:16:30;19.80;91.10
41318;DHT22;27067;51.554;7.026;2022-10-04T02:19:01;19.80;91.10
41318;DHT22;27067;51.554;7.026;2022-10-04T02:21:28;19.70;91.10
41318;DHT22;27067;51.554;7.026;2022-10-04T02:23:54;19.80;91.20
41318;DHT22;27067;51.554;7.026;2022-10-04T02:26:21;19.80;91.10
41318;DHT22;27067;51.554;7.026;2022-10-04T02:28:48;19.80;91.00
41318;DHT22;27067;51.554;7.026;2022-10-04T02:31:14;19.80;91.00
41318;DHT22;27067;51.554;7.026;2022-10-04T02:34:02;19.80;90.90
41318;DHT22;27067;51.554;7.026;2022-10-04T02:36:28;19.80;90.80
41318;DHT22;27067;51.554;7.026;2022-10-04T02:39:01;19.80;91.10
41318;DHT22;27067;51.554;7.026;2022-10-04T02:44:12;19.80;91.20
41318;DHT22;27067;51.554;7.026;2022-10-04T02:49:38;19.80;91.10
41318;DHT22;27067;51.554;7.026;2022-10-04T02:52:11;19.80;91.10
41318;DHT22;27067;51.554;7.026;2022-10-04T02:55:00;19.80;90.70
41318;DHT22;27067;51.554;7.026;2022-10-04T02:57:28;19.80;91.00
41318;DHT22;27067;51.554;7.026;2022-10-04T03:02:39;19.80;90.60
41318;DHT22;27067;51.554;7.026;2022-10-04T03:05:11;19.80;90.70
41318;DHT22;27067;51.554;7.026;2022-10-04T03:07:38;19.80;90.70
41318;DHT22;27067;51.554;7.026;2022-10-04T03:10:10;18.40;90.40
41318;DHT22;27067;51.554;7.026;2022-10-04T03:12:38;19.80;90.70
41318;DHT22;27067;51.554;7.026;2022-10-04T03:15:09;16.00;89.70
41318;DHT22;27067;51.554;7.026;2022-10-04T03:17:35;19.70;90.80
41318;DHT22;27067;51.554;7.026;2022-10-04T03:20:03;19.70;91.20
41318;DHT22;27067;51.554;7.026;2022-10-04T03:24:56;19.70;90.70
41318;DHT22;27067;51.554;7.026;2022-10-04T03:27:28;19.70;90.60
41318;DHT22;27067;51.554;7.026;2022-10-04T03:29:56;19.70;91.20
41318;DHT22;27067;51.554;7.026;2022-10-04T03:32:24;19.70;91.00
41318;DHT22;27067;51.554;7.026;2022-10-04T03:34:59;19.70;90.70
41318;DHT22;27067;51.554;7.026;2022-10-04T03:37:26;19.70;90.70
41318;DHT22;27067;51.554;7.026;2022-10-04T03:39:54;19.70;90.70
41318;DHT22;27067;51.554;7.026;2022-10-04T03:42:29;19.70;91.00
41318;DHT22;27067;51.554;7.026;2022-10-04T03:45:01;19.70;90.80
41318;DHT22;27067;51.554;7.026;2022-10-04T03:47:32;19.60;91.00
41318;DHT22;27067;51.554;7.026;2022-10-04T03:50:10;20.00;90.80
41318;DHT22;27067;51.554;7.026;2022-10-04T03:52:44;19.80;90.70
41318;DHT22;27067;51.554;7.026;2022-10-04T03:55:13;19.60;90.50
41318;DHT22;27067;51.554;7.026;2022-10-04T03:57:40;19.80;90.80
41318;DHT22;27067;51.554;7.026;2022-10-04T04:00:06;19.70;90.50
41318;DHT22;27067;51.554;7.026;2022-10-04T04:02:38;19.80;90.50
41318;DHT22;27067;51.554;7.026;2022-10-04T04:05:19;19.80;90.40
41318;DHT22;27067;51.554;7.026;2022-10-04T04:11:23;19.80;90.60
41318;DHT22;27067;51.554;7.026;2022-10-04T04:14:02;19.80;90.60
41318;DHT22;27067;51.554;7.026;2022-10-04T04:16:30;19.70;90.30
41318;DHT22;27067;51.554;7.026;2022-10-04T04:19:00;19.80;90.60
41318;DHT22;27067;51.554;7.026;2022-10-04T04:21:26;19.80;90.60
41318;DHT22;27067;51.554;7.026;2022-10-04T04:23:58;19.80;90.30
41318;DHT22;27067;51.554;7.026;2022-10-04T04:29:42;19.80;90.30
41318;DHT22;27067;51.554;7.026;2022-10-04T04:32:19;19.90;90.50
41318;DHT22;27067;51.554;7.026;2022-10-04T04:34:50;19.80;90.60
41318;DHT22;27067;51.554;7.026;2022-10-04T04:37:17;19.80;91.10
41318;DHT22;27067;51.554;7.026;2022-10-04T04:39:43;19.70;91.00
41318;DHT22;27067;51.554;7.026;2022-10-04T04:42:35;19.70;91.10
41318;DHT22;27067;51.554;7.026;2022-10-04T04:45:05;19.50;91.70
41318;DHT22;27067;51.554;7.026;2022-10-04T04:47:42;19.60;92.00
41318;DHT22;27067;51.554;7.026;2022-10-04T04:50:14;19.50;92.10
41318;DHT22;27067;51.554;7.026;2022-10-04T04:52:44;19.50;91.80
41318;DHT22;27067;51.554;7.026;2022-10-04T04:55:26;19.60;91.70
41318;DHT22;27067;51.554;7.026;2022-10-04T04:57:55;19.60;91.90
41318;DHT22;27067;51.554;7.026;2022-10-04T05:00:23;19.70;91.50
41318;DHT22;27067;51.554;7.026;2022-10-04T05:02:55;19.80;91.60
41318;DHT22;27067;51.554;7.026;2022-10-04T05:05:24;19.80;91.10
41318;DHT22;27067;51.554;7.026;2022-10-04T05:10:35;19.90;91.20
41318;DHT22;27067;51.554;7.026;2022-10-04T05:13:01;19.80;90.80
41318;DHT22;27067;51.554;7.026;2022-10-04T05:15:36;19.90;90.50
41318;DHT22;27067;51.554;7.026;2022-10-04T05:18:34;19.90;90.70
41318;DHT22;27067;51.554;7.026;2022-10-04T05:21:07;20.00;90.60
41318;DHT22;27067;51.554;7.026;2022-10-04T05:23:36;20.00;90.20
41318;DHT22;27067;51.554;7.026;2022-10-04T05:26:02;20.10;90.00
41318;DHT22;27067;51.554;7.026;2022-10-04T05:28:29;20.20;90.00
41318;DHT22;27067;51.554;7.026;2022-10-04T05:33:47;20.40;90.10
41318;DHT22;27067;51.554;7.026;2022-10-04T05:36:50;20.00;90.00
41318;DHT22;27067;51.554;7.026;2022-10-04T05:39:40;20.00;90.00
41318;DHT22;27067;51.554;7.026;2022-10-04T05:44:55;20.00;87.90
41318;DHT22;27067;51.554;7.026;2022-10-04T05:47:24;20.00;88.40
41318;DHT22;27067;51.554;7.026;2022-10-04T05:49:58;20.10;87.70
41318;DHT22;27067;51.554;7.026;2022-10-04T05:55:24;20.00;87.70
41318;DHT22;27067;51.554;7.026;2022-10-04T05:58:13;20.00;88.30
41318;DHT22;27067;51.554;7.026;2022-10-04T06:01:05;20.00;88.10
41318;DHT22;27067;51.554;7.026;2022-10-04T06:06:59;20.00;88.90
41318;DHT22;27067;51.554;7.026;2022-10-04T06:12:43;20.00;92.20
41318;DHT22;27067;51.554;7.026;2022-10-04T06:23:19;20.00;91.40
41318;DHT22;27067;51.554;7.026;2022-10-04T06:26:11;20.00;91.10
41318;DHT22;27067;51.554;7.026;2022-10-04T06:46:10;19.70;91.60
41318;DHT22;27067;51.554;7.026;2022-10-04T06:48:52;19.80;91.60
41318;DHT22;27067;51.554;7.026;2022-10-04T06:51:38;19.80;91.40
41318;DHT22;27067;51.554;7.026;2022-10-04T07:00:25;19.90;91.00
41318;DHT22;27067;51.554;7.026;2022-10-04T07:03:00;19.90;90.70
41318;DHT22;27067;51.554;7.026;2022-10-04T07:05:31;20.00;90.60
41318;DHT22;27067;51.554;7.026;2022-10-04T07:08:51;20.00;90.80
41318;DHT22;27067;51.554;7.026;2022-10-04T07:29:54;20.10;90.30
41318;DHT22;27067;51.554;7.026;2022-10-04T07:32:23;20.00;89.90
41318;DHT22;27067;51.554;7.026;2022-10-04T07:40:38;20.10;90.10
41318;DHT22;27067;51.554;7.026;2022-10-04T07:43:23;20.00;89.70
41318;DHT22;27067;51.554;7.026;2022-10-04T07:45:59;20.00;89.80
41318;DHT22;27067;51.554;7.026;2022-10-04T07:48:27;20.00;90.20
41318;DHT22;27067;51.554;7.026;2022-10-04T07:53:36;19.90;90.10
41318;DHT22;27067;51.554;7.026;2022-10-04T07:56:16;19.90;90.40
41318;DHT22;27067;51.554;7.026;2022-10-04T08:09:50;19.80;90.40
41318;DHT22;27067;51.554;7.026;2022-10-04T08:12:28;19.90;90.40
41318;DHT22;27067;51.554;7.026;2022-10-04T08:20:51;19.80;90.50
41318;DHT22;27067;51.554;7.026;2022-10-04T08:23:40;19.90;90.80
41318;DHT22;27067;51.554;7.026;2022-10-04T08:26:27;19.90;90.60
41318;DHT22;27067;51.554;7.026;2022-10-04T08:34:44;19.80;90.80
41318;DHT22;27067;51.554;7.026;2022-10-04T08:43:31;19.90;90.80
41318;DHT22;27067;51.554;7.026;2022-10-04T08:49:16;19.80;90.50
41318;DHT22;27067;51.554;7.026;2022-10-04T14:25:58;20.10;96.50
41318;DHT22;27067;51.554;7.026;2022-10-04T17:57:58;19.80;96.70
